Time;durP1;ratioP1;P1;durP2;ratioP2;P2;SDS_P1;SDS_P2;PMS_P1;PMS_P2;Temp;Humidity;BMP_temperature;BMP_pressure;BME280_temperature;BME280_humidity;BME280_pressure;Samples;Min_cycle;Max_cycle;Signal;HPM_P1;HPM_P2
2023/01/04 00:01:34;;;;;;;23.88;10.27;;;7.30;99.90;;;;;;5003267;28;88095;-74
2023/01/04 00:03:59;;;;;;;22.20;9.85;;;7.30;99.90;;;;;;5003815;28;87084;-73
2023/01/04 00:06:25;;;;;;;22.25;9.68;;;7.30;99.90;;;;;;5003080;28;88568;-74
2023/01/04 00:08:51;;;;;;;22.73;10.05;;;7.30;99.90;;;;;;5002985;28;87317;-73
2023/01/04 00:11:21;;;;;;;23.52;8.85;;;7.30;99.90;;;;;;4999707;28;87087;-74
2023/01/04 00:13:51;;;;;;;22.63;9.63;;;7.30;99.90;;;;;;5002632;28;87354;-74
2023/01/04 00:16:23;;;;;;;25.20;10.55;;;7.10;99.90;;;;;;5003504;28;87746;-74
2023/01/04 00:18:50;;;;;;;21.73;9.32;;;7.10;99.90;;;;;;5002425;28;86981;-73
2023/01/04 00:21:18;;;;;;;21.48;8.98;;;7.10;99.90;;;;;;5003193;28;87507;-75
2023/01/04 00:23:47;;;;;;;16.58;7.68;;;7.20;99.90;;;;;;5002882;28;89031;-75
2023/01/04 00:26:15;;;;;;;19.60;9.32;;;7.30;99.90;;;;;;5005332;28;88528;-75
2023/01/04 00:28:42;;;;;;;21.75;9.02;;;7.40;99.90;;;;;;5003529;28;88946;-75
2023/01/04 00:31:10;;;;;;;17.08;8.25;;;7.30;99.90;;;;;;5000618;28;87683;-75
2023/01/04 00:33:36;;;;;;;18.35;7.88;;;7.20;99.90;;;;;;5000995;28;87210;-74
2023/01/04 00:36:07;;;;;;;19.38;8.23;;;7.20;99.90;;;;;;5001563;28;87733;-74
2023/01/04 00:38:33;;;;;;;14.68;7.25;;;7.20;99.90;;;;;;5003227;28;87817;-75
2023/01/04 00:41:00;;;;;;;18.30;8.18;;;7.30;99.90;;;;;;4999793;28;87576;-75
2023/01/04 00:43:26;;;;;;;18.25;7.72;;;7.30;99.90;;;;;;5002147;28;86380;-74
2023/01/04 00:45:52;;;;;;;19.42;8.50;;;7.30;99.90;;;;;;5002887;28;88517;-73
2023/01/04 00:48:17;;;;;;;19.98;8.02;;;7.30;99.90;;;;;;5002545;28;88010;-74
2023/01/04 00:50:44;;;;;;;21.40;8.40;;;7.30;99.90;;;;;;5002827;28;87928;-75
2023/01/04 00:53:11;;;;;;;20.73;8.50;;;7.30;99.90;;;;;;5003557;28;87574;-73
2023/01/04 00:55:37;;;;;;;19.58;8.15;;;7.20;99.90;;;;;;5002393;28;88129;-72
2023/01/04 00:58:02;;;;;;;16.15;7.28;;;7.20;99.90;;;;;;4999773;28;87822;-75
2023/01/04 01:00:28;;;;;;;13.38;5.88;;;7.30;99.90;;;;;;5003438;28;87124;-73
2023/01/04 01:02:54;;;;;;;14.52;6.30;;;7.40;99.90;;;;;;5001832;28;87310;-73
2023/01/04 01:05:19;;;;;;;14.60;6.60;;;7.40;99.90;;;;;;5002878;28;88170;-74
2023/01/04 01:07:45;;;;;;;13.73;5.72;;;7.40;99.90;;;;;;5002983;28;87318;-74
2023/01/04 01:10:11;;;;;;;12.13;5.88;;;7.40;99.90;;;;;;5001794;28;87547;-74
2023/01/04 01:12:36;;;;;;;11.27;5.30;;;7.40;99.90;;;;;;4998933;28;86994;-73
2023/01/04 01:15:02;;;;;;;13.00;5.97;;;7.40;99.90;;;;;;5002379;28;89016;-73
2023/01/04 01:17:28;;;;;;;16.00;7.07;;;7.40;99.90;;;;;;5000982;28;90910;-73
2023/01/04 01:19:54;;;;;;;16.73;7.30;;;7.40;99.90;;;;;;5003255;28;87371;-73
2023/01/04 01:22:19;;;;;;;15.95;7.00;;;7.30;99.90;;;;;;5002155;28;87083;-72
2023/01/04 01:24:45;;;;;;;16.15;7.20;;;7.20;99.90;;;;;;5002853;28;88378;-73
2023/01/04 01:27:11;;;;;;;16.42;6.88;;;7.10;99.90;;;;;;4998069;28;87881;-72
2023/01/04 01:29:36;;;;;;;18.33;7.72;;;7.00;99.90;;;;;;5001893;28;87510;-73
2023/01/04 01:32:02;;;;;;;19.50;8.35;;;6.90;99.90;;;;;;5002754;28;87969;-74
2023/01/04 01:34:28;;;;;;;21.55;8.98;;;6.80;99.90;;;;;;5003386;28;88219;-73
2023/01/04 01:36:53;;;;;;;17.05;7.47;;;6.70;99.90;;;;;;5001949;28;87869;-73
2023/01/04 01:39:19;;;;;;;22.30;8.25;;;6.70;99.90;;;;;;5000865;28;88808;-73
2023/01/04 01:41:45;;;;;;;15.73;6.78;;;6.60;99.90;;;;;;5002045;28;89125;-73
2023/01/04 01:44:41;;;;;;;19.83;8.02;;;6.60;99.90;;;;;;4997849;28;87717;-73
2023/01/04 01:47:25;;;;;;;17.95;7.20;;;6.50;99.90;;;;;;5000319;28;87527;-75
2023/01/04 01:49:53;;;;;;;19.33;7.30;;;6.50;99.90;;;;;;5009414;28;87291;-75
2023/01/04 01:52:29;;;;;;;21.15;8.23;;;6.40;99.90;;;;;;5004781;28;88717;-74
2023/01/04 01:55:02;;;;;;;24.90;8.25;;;6.40;99.90;;;;;;5000787;28;88191;-73
2023/01/04 01:57:32;;;;;;;32.08;7.90;;;6.30;99.90;;;;;;5002351;28;87029;-73
2023/01/04 02:00:03;;;;;;;33.65;7.57;;;6.30;99.90;;;;;;4997611;28;87017;-73
2023/01/04 02:02:29;;;;;;;24.50;8.07;;;6.20;99.90;;;;;;5000722;28;87382;-73
2023/01/04 02:04:55;;;;;;;44.53;9.73;;;6.10;99.90;;;;;;5001402;28;88558;-73
2023/01/04 02:07:25;;;;;;;27.92;8.32;;;6.10;99.90;;;;;;4999949;28;88852;-74
2023/01/04 02:09:50;;;;;;;24.13;7.40;;;6.10;99.90;;;;;;5002347;28;87390;-73
2023/01/04 02:12:17;;;;;;;20.63;6.97;;;6.10;99.90;;;;;;4994436;28;87405;-74
2023/01/04 02:14:45;;;;;;;21.08;7.13;;;6.10;99.90;;;;;;4996307;28;89708;-74
2023/01/04 02:17:25;;;;;;;21.70;7.53;;;6.10;99.90;;;;;;5001823;28;87116;-74
2023/01/04 02:20:15;;;;;;;19.45;7.45;;;6.10;99.90;;;;;;5000446;28;87417;-73
2023/01/04 02:22:43;;;;;;;;;;;6.00;99.90;;;;;;5003358;28;86249;-71
2023/01/04 02:25:36;;;;;;;20.60;6.90;;;6.00;99.90;;;;;;5003577;28;88042;-71
2023/01/04 02:28:16;;;;;;;21.17;7.40;;;6.00;99.90;;;;;;4996137;28;88693;-71
2023/01/04 02:30:51;;;;;;;24.13;7.68;;;6.00;99.90;;;;;;4987656;28;88244;-72
2023/01/04 02:33:44;;;;;;;29.33;8.95;;;6.10;99.90;;;;;;4990396;28;88924;-72
2023/01/04 02:36:16;;;;;;;29.48;7.93;;;6.20;99.90;;;;;;4989118;28;87983;-72
2023/01/04 02:38:45;;;;;;;39.72;9.20;;;6.30;99.90;;;;;;5001656;28;87894;-72
2023/01/04 02:41:20;;;;;;;30.67;8.55;;;6.30;99.90;;;;;;5002252;28;87270;-72
2023/01/04 02:47:10;;;;;;;19.77;7.47;;;6.50;99.90;;;;;;5000186;28;87314;-72
2023/01/04 02:52:21;;;;;;;15.00;6.22;;;6.60;99.90;;;;;;5001594;28;86908;-72
2023/01/04 02:54:50;;;;;;;37.83;7.35;;;6.70;99.90;;;;;;4999769;28;87637;-72
2023/01/04 02:57:46;;;;;;;22.35;6.85;;;6.70;99.90;;;;;;5000136;28;88993;-72
2023/01/04 03:00:29;;;;;;;15.90;6.88;;;6.70;99.90;;;;;;4989719;28;89092;-72
2023/01/04 03:06:14;;;;;;;19.27;6.95;;;6.60;99.90;;;;;;5001653;28;86915;-72
2023/01/04 03:08:58;;;;;;;31.25;9.43;;;6.70;99.90;;;;;;5001388;28;88079;-72
2023/01/04 03:14:32;;;;;;;24.58;8.27;;;6.80;99.90;;;;;;5003817;28;87450;-72
2023/01/04 03:17:11;;;;;;;22.23;8.88;;;6.90;99.90;;;;;;5003936;28;86525;-72
2023/01/04 03:19:51;;;;;;;30.52;9.35;;;6.90;99.90;;;;;;5001004;28;87474;-72
2023/01/04 03:37:04;;;;;;;18.75;7.82;;;7.30;99.90;;;;;;4991687;28;87809;-72
2023/01/04 03:48:47;;;;;;;19.00;8.77;;;7.30;99.90;;;;;;4990167;28;88798;-71
2023/01/04 03:51:41;;;;;;;17.77;7.70;;;7.30;99.90;;;;;;4994195;28;88834;-72
2023/01/04 03:54:24;;;;;;;16.73;7.28;;;7.40;99.90;;;;;;4983596;28;90310;-72
2023/01/04 03:56:51;;;;;;;20.10;8.35;;;7.40;99.90;;;;;;4991977;28;88344;-72
2023/01/04 03:59:17;;;;;;;17.67;7.40;;;7.40;99.90;;;;;;4991909;28;89174;-72
2023/01/04 04:01:43;;;;;;;42.83;10.52;;;7.50;99.90;;;;;;4993674;28;87556;-72
2023/01/04 04:09:39;;;;;;;41.53;10.75;;;7.40;99.90;;;;;;4991211;28;88140;-73
2023/01/04 04:12:04;;;;;;;30.38;9.50;;;7.30;99.90;;;;;;4993066;28;86463;-72
2023/01/04 04:14:30;;;;;;;37.92;10.57;;;7.40;99.90;;;;;;4995043;28;88011;-72
2023/01/04 04:16:56;;;;;;;25.98;10.10;;;7.40;99.90;;;;;;4994236;28;87566;-73
2023/01/04 04:19:21;;;;;;;31.42;10.02;;;7.40;99.90;;;;;;4992648;28;90637;-73
2023/01/04 04:21:47;;;;;;;28.52;9.52;;;7.40;99.90;;;;;;4997680;28;89251;-73
2023/01/04 04:24:18;;;;;;;33.58;10.40;;;7.40;99.90;;;;;;4997733;28;88000;-73
2023/01/04 04:26:44;;;;;;;24.20;9.27;;;7.20;99.90;;;;;;4993380;28;87437;-72
2023/01/04 04:29:10;;;;;;;29.65;10.48;;;7.20;99.90;;;;;;4997203;28;87437;-72
2023/01/04 04:31:35;;;;;;;28.65;9.40;;;7.10;99.90;;;;;;4994338;28;87228;-72
2023/01/04 04:34:01;;;;;;;25.88;9.02;;;7.00;99.90;;;;;;4999860;28;87743;-73
2023/01/04 04:36:27;;;;;;;23.73;9.25;;;6.90;99.90;;;;;;4990094;28;89574;-72
2023/01/04 04:38:53;;;;;;;22.20;8.30;;;6.90;99.90;;;;;;4998714;28;87106;-72
2023/01/04 04:44:07;;;;;;;20.70;7.57;;;6.70;99.90;;;;;;4998256;28;88668;-73
2023/01/04 04:46:33;;;;;;;22.42;7.57;;;6.70;99.90;;;;;;4991712;28;89130;-73
2023/01/04 04:48:59;;;;;;;18.95;7.03;;;6.60;99.90;;;;;;4998387;28;88630;-73
2023/01/04 04:51:24;;;;;;;20.13;7.85;;;6.60;99.90;;;;;;4989476;28;88953;-72
2023/01/04 04:53:50;;;;;;;15.80;6.53;;;6.50;99.90;;;;;;4993690;28;87870;-72
2023/01/04 04:56:15;;;;;;;16.02;6.68;;;6.40;99.90;;;;;;4992892;28;87803;-72
2023/01/04 04:58:41;;;;;;;20.38;7.60;;;6.40;99.90;;;;;;4998436;28;89213;-71
2023/01/04 05:01:07;;;;;;;15.88;6.43;;;6.30;99.90;;;;;;4996641;28;86320;-71
2023/01/04 05:03:33;;;;;;;18.90;7.07;;;6.30;99.90;;;;;;4999836;28;88071;-71
2023/01/04 05:05:59;;;;;;;21.30;8.30;;;6.30;99.90;;;;;;4998004;28;88347;-73
2023/01/04 05:08:25;;;;;;;22.08;8.48;;;6.20;99.90;;;;;;4999841;28;88407;-71
2023/01/04 05:10:51;;;;;;;21.63;8.13;;;6.20;99.90;;;;;;5003031;28;87037;-71
2023/01/04 05:13:16;;;;;;;22.20;7.82;;;6.20;99.90;;;;;;5001291;28;88022;-72
2023/01/04 05:15:45;;;;;;;19.83;7.47;;;6.20;99.90;;;;;;5002905;28;87532;-72
2023/01/04 05:18:13;;;;;;;19.88;7.32;;;6.10;99.90;;;;;;5002879;28;86860;-73
2023/01/04 05:20:38;;;;;;;18.55;7.00;;;6.10;99.90;;;;;;5002317;28;87020;-73
2023/01/04 05:23:05;;;;;;;21.23;7.50;;;6.10;99.90;;;;;;4998024;28;88218;-71
2023/01/04 05:25:31;;;;;;;21.45;7.60;;;6.10;99.90;;;;;;5000994;28;87138;-72
2023/01/04 05:27:57;;;;;;;23.27;7.90;;;6.00;99.90;;;;;;5002881;28;87235;-71
2023/01/04 05:33:07;;;;;;;25.50;8.82;;;6.00;99.90;;;;;;5002018;28;88282;-71
2023/01/04 05:35:33;;;;;;;32.05;9.27;;;6.10;99.90;;;;;;5001583;28;88757;-73
2023/01/04 05:37:59;;;;;;;28.65;8.57;;;6.20;99.90;;;;;;5003874;28;86996;-72
2023/01/04 05:40:25;;;;;;;26.10;9.45;;;6.20;99.90;;;;;;5008448;28;88148;-72
2023/01/04 05:42:51;;;;;;;34.33;9.80;;;6.20;99.90;;;;;;5003012;28;88182;-72
2023/01/04 05:45:18;;;;;;;39.67;9.95;;;6.30;99.90;;;;;;5002457;28;87945;-73
2023/01/04 05:47:44;;;;;;;29.48;9.45;;;6.30;99.90;;;;;;5003094;28;87157;-72
2023/01/04 05:50:10;;;;;;;42.15;10.43;;;6.40;99.90;;;;;;5000811;28;86337;-71
2023/01/04 05:52:36;;;;;;;35.25;9.32;;;6.40;99.90;;;;;;4998472;28;88291;-72
2023/01/04 05:55:02;;;;;;;37.33;9.98;;;6.40;99.90;;;;;;4997937;28;87922;-72
2023/01/04 05:57:27;;;;;;;36.70;9.95;;;6.40;99.90;;;;;;5001017;28;88545;-71
2023/01/04 05:59:53;;;;;;;44.10;10.13;;;6.40;99.90;;;;;;5001838;28;87366;-73
2023/01/04 06:02:21;;;;;;;50.35;10.48;;;6.50;99.90;;;;;;5000730;28;87333;-72
2023/01/04 06:04:47;;;;;;;30.85;9.48;;;6.40;99.90;;;;;;5001698;28;87583;-72
2023/01/04 06:07:13;;;;;;;31.98;10.05;;;6.40;99.90;;;;;;5001623;28;87364;-72
2023/01/04 06:09:39;;;;;;;32.60;9.57;;;6.40;99.90;;;;;;5000504;28;88118;-74
2023/01/04 06:12:05;;;;;;;33.70;8.93;;;6.50;99.90;;;;;;5001515;28;87690;-73
2023/01/04 06:14:31;;;;;;;28.23;9.50;;;6.50;99.90;;;;;;5001626;28;88746;-73
2023/01/04 06:16:57;;;;;;;27.88;8.60;;;6.50;99.90;;;;;;5001877;28;87083;-73
2023/01/04 06:19:23;;;;;;;23.60;9.00;;;6.50;99.90;;;;;;5002581;28;87044;-73
2023/01/04 06:21:48;;;;;;;22.20;8.18;;;6.50;99.90;;;;;;4999921;28;89104;-72
2023/01/04 06:24:14;;;;;;;21.73;7.63;;;6.50;99.90;;;;;;4996235;28;91861;-73
2023/01/04 06:26:40;;;;;;;31.90;9.85;;;6.50;99.90;;;;;;5007545;28;87044;-74
2023/01/04 06:29:06;;;;;;;21.20;8.43;;;6.40;99.90;;;;;;5001794;28;88913;-73
2023/01/04 06:31:32;;;;;;;26.23;7.95;;;6.40;99.90;;;;;;5001445;28;87683;-73
2023/01/04 06:33:58;;;;;;;24.88;7.38;;;6.50;99.90;;;;;;5001242;28;87372;-74
2023/01/04 06:36:24;;;;;;;20.92;7.55;;;6.50;99.90;;;;;;4998957;28;87613;-74
2023/01/04 06:38:50;;;;;;;39.72;8.63;;;6.50;99.90;;;;;;5002221;28;86533;-73
2023/01/04 06:41:16;;;;;;;26.77;8.35;;;6.40;99.90;;;;;;4996060;28;88392;-73
2023/01/04 06:43:41;;;;;;;24.42;8.05;;;6.30;99.90;;;;;;4999155;28;87380;-74
2023/01/04 06:46:07;;;;;;;22.25;7.70;;;6.30;99.90;;;;;;4994185;28;88471;-74
2023/01/04 06:48:33;;;;;;;19.63;7.15;;;6.10;99.90;;;;;;4987750;28;87161;-73
2023/01/04 06:50:59;;;;;;;19.63;7.10;;;6.10;99.90;;;;;;5001134;28;87601;-74
2023/01/04 06:53:24;;;;;;;19.08;6.82;;;6.10;99.90;;;;;;4998004;28;87841;-73
2023/01/04 06:55:50;;;;;;;18.35;6.35;;;6.10;99.90;;;;;;5000511;28;88533;-73
2023/01/04 06:58:16;;;;;;;19.92;7.32;;;6.00;99.90;;;;;;5002757;28;87008;-73
2023/01/04 07:00:41;;;;;;;23.17;6.72;;;5.90;99.90;;;;;;4998751;28;88210;-71
2023/01/04 07:03:08;;;;;;;22.17;7.03;;;5.90;99.90;;;;;;5001718;28;87266;-71
2023/01/04 07:05:34;;;;;;;21.83;7.47;;;5.90;99.90;;;;;;5001390;28;87043;-73
2023/01/04 07:08:00;;;;;;;20.73;7.32;;;6.00;99.90;;;;;;4998454;28;87312;-72
2023/01/04 07:10:26;;;;;;;18.20;7.10;;;6.00;99.90;;;;;;5000036;28;88914;-71
2023/01/04 07:12:52;;;;;;;20.15;7.70;;;6.10;99.90;;;;;;4995311;28;87640;-73
2023/01/04 07:15:17;;;;;;;20.75;7.38;;;6.20;99.90;;;;;;4992762;28;89122;-72
2023/01/04 07:17:46;;;;;;;18.48;7.45;;;6.20;99.90;;;;;;4991670;28;88598;-72
2023/01/04 07:20:12;;;;;;;22.27;7.75;;;6.30;99.90;;;;;;4987260;28;87642;-71
2023/01/04 07:22:37;;;;;;;23.60;8.52;;;6.40;99.90;;;;;;4993276;28;87555;-71
2023/01/04 07:25:03;;;;;;;23.00;7.85;;;6.40;99.90;;;;;;4998831;28;87154;-71
2023/01/04 07:27:29;;;;;;;16.20;7.20;;;6.40;99.90;;;;;;4995823;28;86886;-72
2023/01/04 07:29:55;;;;;;;17.50;7.10;;;6.50;99.90;;;;;;4990713;28;88088;-72
2023/01/04 07:32:20;;;;;;;18.52;6.22;;;6.50;99.90;;;;;;4982210;28;88735;-73
2023/01/04 07:34:46;;;;;;;22.63;6.68;;;6.50;99.90;;;;;;4980576;28;89773;-73
2023/01/04 07:37:12;;;;;;;15.70;5.50;;;6.50;99.90;;;;;;4992394;28;87867;-72
2023/01/04 07:39:38;;;;;;;15.63;6.03;;;6.50;99.90;;;;;;4998164;28;88167;-73
2023/01/04 07:42:03;;;;;;;12.90;5.32;;;6.50;99.90;;;;;;4997584;28;87888;-73
2023/01/04 07:44:29;;;;;;;14.40;5.57;;;6.50;99.90;;;;;;4992251;28;87479;-73
2023/01/04 07:46:55;;;;;;;15.77;5.97;;;6.50;99.90;;;;;;4992438;28;87215;-73
2023/01/04 07:49:21;;;;;;;12.40;5.45;;;6.50;99.90;;;;;;4996650;28;88091;-73
2023/01/04 07:51:48;;;;;;;20.95;4.00;;;6.50;99.90;;;;;;4998482;28;87069;-73
2023/01/04 07:54:15;;;;;;;9.93;4.35;;;6.50;99.90;;;;;;4998852;28;87282;-73
2023/01/04 07:56:41;;;;;;;11.30;4.78;;;6.40;99.90;;;;;;5001523;28;87639;-74
2023/01/04 07:59:09;;;;;;;11.55;4.78;;;6.40;99.90;;;;;;4996959;28;89020;-72
2023/01/04 08:01:37;;;;;;;11.32;4.40;;;6.40;99.90;;;;;;5000805;28;88293;-71
2023/01/04 08:04:07;;;;;;;10.27;4.45;;;6.50;99.90;;;;;;5001521;28;88385;-76
2023/01/04 08:06:33;;;;;;;11.15;4.72;;;6.70;99.90;;;;;;5001347;28;87180;-75
2023/01/04 08:09:00;;;;;;;10.07;3.60;;;6.90;99.90;;;;;;5002122;28;87624;-74
2023/01/04 08:11:25;;;;;;;9.68;4.43;;;7.10;99.90;;;;;;5001995;28;87221;-74
2023/01/04 08:13:51;;;;;;;9.18;4.03;;;7.40;99.90;;;;;;4996027;28;87331;-74
2023/01/04 08:16:19;;;;;;;6.90;2.95;;;7.70;99.90;;;;;;5001619;28;86584;-74
2023/01/04 08:18:45;;;;;;;7.65;3.28;;;8.10;99.90;;;;;;5001042;28;88532;-74
2023/01/04 08:21:10;;;;;;;8.43;3.17;;;8.50;99.90;;;;;;5001985;28;87283;-73
2023/01/04 08:23:36;;;;;;;8.35;3.15;;;8.60;99.20;;;;;;5001238;28;88405;-74
2023/01/04 08:26:07;;;;;;;7.40;2.65;;;8.80;97.80;;;;;;4997518;28;87784;-74
2023/01/04 08:28:33;;;;;;;3.85;1.67;;;8.80;97.10;;;;;;5001786;28;88260;-74
2023/01/04 08:31:05;;;;;;;4.35;1.77;;;8.80;97.20;;;;;;5003136;28;87778;-72
2023/01/04 08:33:30;;;;;;;6.22;2.15;;;8.90;96.40;;;;;;4998631;28;87966;-73
2023/01/04 08:36:15;;;;;;;7.50;1.80;;;8.70;95.70;;;;;;5001945;28;87107;-74
2023/01/04 08:38:41;;;;;;;5.78;2.17;;;8.60;95.60;;;;;;5001837;28;87918;-72
2023/01/04 08:41:07;;;;;;;5.13;2.17;;;8.40;95.80;;;;;;5001545;28;88033;-72
2023/01/04 08:43:34;;;;;;;6.05;2.45;;;8.40;96.00;;;;;;5000802;28;87522;-73
2023/01/04 08:46:00;;;;;;;6.32;2.55;;;8.30;96.20;;;;;;4996621;28;87296;-74
2023/01/04 08:48:30;;;;;;;5.38;2.15;;;8.30;97.10;;;;;;5000872;28;88968;-73
2023/01/04 08:51:00;;;;;;;5.43;2.22;;;8.20;96.60;;;;;;5001221;28;88781;-74
2023/01/04 08:53:26;;;;;;;7.15;2.38;;;8.10;96.80;;;;;;4995620;28;87105;-73
2023/01/04 08:55:53;;;;;;;7.03;2.35;;;8.00;97.40;;;;;;4997809;28;87171;-73
2023/01/04 08:58:19;;;;;;;6.80;2.72;;;8.00;97.90;;;;;;5000872;28;88024;-74
2023/01/04 09:00:45;;;;;;;5.88;2.42;;;8.00;98.60;;;;;;4999789;28;88047;-72
2023/01/04 09:03:11;;;;;;;6.57;2.53;;;8.10;98.20;;;;;;5006787;28;87105;-73
2023/01/04 09:05:37;;;;;;;7.28;2.60;;;8.10;98.50;;;;;;5001567;28;86849;-72
2023/01/04 09:08:02;;;;;;;6.43;2.60;;;8.20;98.50;;;;;;5001105;28;88817;-73
2023/01/04 09:10:28;;;;;;;6.78;2.83;;;8.20;98.10;;;;;;5001229;28;87419;-74
2023/01/04 09:12:54;;;;;;;5.25;2.58;;;8.30;97.90;;;;;;5001068;28;87994;-74
2023/01/04 09:15:20;;;;;;;7.28;3.10;;;8.30;98.20;;;;;;4998651;28;87361;-74
2023/01/04 09:17:47;;;;;;;6.40;3.03;;;8.30;98.30;;;;;;4997587;28;88840;-73
2023/01/04 09:20:13;;;;;;;6.47;2.72;;;8.30;98.80;;;;;;4999480;28;87877;-72
2023/01/04 09:22:39;;;;;;;7.30;3.08;;;8.60;99.20;;;;;;5001054;28;87065;-73
2023/01/04 09:25:05;;;;;;;7.25;3.00;;;8.70;97.50;;;;;;5000545;28;87121;-73
2023/01/04 09:27:31;;;;;;;6.78;2.95;;;8.80;97.90;;;;;;5000393;28;89760;-73
2023/01/04 09:29:57;;;;;;;6.57;2.70;;;9.00;97.00;;;;;;5001472;28;87868;-74
2023/01/04 09:32:23;;;;;;;6.70;2.97;;;9.00;97.00;;;;;;4997089;28;87235;-73
2023/01/04 09:34:48;;;;;;;6.50;2.80;;;9.10;96.10;;;;;;5000558;28;87031;-73
2023/01/04 09:37:14;;;;;;;6.80;2.90;;;9.20;96.90;;;;;;4999292;28;89083;-74
2023/01/04 09:39:40;;;;;;;6.90;2.60;;;9.40;96.10;;;;;;4999538;28;88358;-72
2023/01/04 09:42:29;;;;;;;4.78;2.22;;;9.30;96.10;;;;;;5000751;28;87414;-72
2023/01/04 09:45:17;;;;;;;7.03;2.63;;;9.50;95.20;;;;;;4992101;28;87864;-72
2023/01/04 09:47:58;;;;;;;5.72;2.38;;;9.50;95.00;;;;;;4996502;28;87840;-71
2023/01/04 09:50:30;;;;;;;5.72;2.38;;;9.60;94.60;;;;;;5001403;28;87925;-72
2023/01/04 09:53:11;;;;;;;5.32;2.40;;;9.60;95.30;;;;;;4995199;28;87410;-71
2023/01/04 09:55:41;;;;;;;11.45;2.92;;;9.60;95.00;;;;;;5008640;28;87119;-71
2023/01/04 09:58:25;;;;;;;5.82;2.00;;;9.50;94.20;;;;;;5001204;28;90659;-72
2023/01/04 10:00:58;;;;;;;8.77;2.30;;;9.50;95.00;;;;;;4999900;28;89116;-71
2023/01/04 10:03:31;;;;;;;4.38;1.35;;;9.40;94.40;;;;;;4988164;28;88987;-73
2023/01/04 10:05:57;;;;;;;4.57;1.58;;;9.30;93.80;;;;;;4994664;28;87123;-73
2023/01/04 10:08:23;;;;;;;3.63;1.30;;;9.20;93.90;;;;;;5001898;28;88262;-73
2023/01/04 10:11:17;;;;;;;4.78;1.73;;;9.10;94.10;;;;;;5002433;28;87425;-72
2023/01/04 10:14:27;;;;;;;5.97;1.63;;;8.90;94.30;;;;;;4965249;28;87342;-72
2023/01/04 10:17:13;;;;;;;6.80;1.73;;;8.80;94.70;;;;;;4990126;28;89119;-74
2023/01/04 10:19:42;;;;;;;3.15;1.25;;;8.70;95.50;;;;;;4993271;28;89404;-72
2023/01/04 10:22:32;;;;;;;6.30;2.30;;;8.60;95.00;;;;;;5001912;28;87697;-72
2023/01/04 10:25:10;;;;;;;5.22;2.03;;;8.60;95.70;;;;;;4993606;28;87404;-72
2023/01/04 10:27:54;;;;;;;4.75;1.80;;;8.60;96.00;;;;;;5001851;28;87132;-72
2023/01/04 10:30:48;;;;;;;6.03;2.30;;;8.50;96.30;;;;;;4994113;28;88747;-72
2023/01/04 10:33:22;;;;;;;4.00;1.67;;;8.50;96.60;;;;;;4991645;28;89057;-73
2023/01/04 10:35:48;;;;;;;5.53;1.90;;;8.70;96.50;;;;;;4991588;28;88504;-73
2023/01/04 10:38:23;;;;;;;3.97;1.65;;;8.90;96.70;;;;;;4993170;28;89046;-73
2023/01/04 10:40:49;;;;;;;4.65;1.73;;;9.00;96.20;;;;;;4995246;28;88862;-73
2023/01/04 10:43:30;;;;;;;5.38;1.85;;;9.20;95.60;;;;;;4998068;28;87378;-73
2023/01/04 10:46:11;;;;;;;4.93;1.25;;;9.30;95.80;;;;;;4996826;28;86940;-73
2023/01/04 10:48:50;;;;;;;4.10;1.23;;;9.40;94.50;;;;;;5001195;28;86116;-72
2023/01/04 10:51:23;;;;;;;3.88;0.95;;;9.40;93.90;;;;;;5000998;28;87639;-73
2023/01/04 10:53:53;;;;;;;3.40;1.00;;;9.40;93.80;;;;;;4994250;28;88912;-72
2023/01/04 10:56:34;;;;;;;2.97;0.90;;;9.50;93.30;;;;;;4992264;28;90429;-74
2023/01/04 10:59:15;;;;;;;2.00;0.30;;;9.50;92.20;;;;;;4997692;28;87518;-74
2023/01/04 11:01:48;;;;;;;2.92;0.50;;;9.60;91.30;;;;;;4993907;28;88114;-74
2023/01/04 11:04:34;;;;;;;3.60;1.23;;;9.60;91.20;;;;;;4994407;28;89270;-72
2023/01/04 11:07:11;;;;;;;1.50;0.30;;;9.60;91.00;;;;;;4993794;28;87734;-73
2023/01/04 11:09:47;;;;;;;4.55;1.77;;;9.60;90.50;;;;;;4996691;28;88626;-74
2023/01/04 11:12:16;;;;;;;2.70;1.63;;;9.60;90.80;;;;;;4994105;28;87761;-72
2023/01/04 11:14:42;;;;;;;1.60;0.47;;;9.70;91.00;;;;;;4994582;28;90912;-74
2023/01/04 11:17:10;;;;;;;1.65;0.40;;;9.80;90.60;;;;;;4992548;28;87598;-72
2023/01/04 11:19:36;;;;;;;1.88;0.40;;;9.80;90.50;;;;;;4997637;28;87589;-73
2023/01/04 11:22:35;;;;;;;3.78;2.08;;;9.80;90.00;;;;;;4987035;28;88718;-72
2023/01/04 11:25:04;;;;;;;12.70;9.05;;;9.90;90.30;;;;;;4991114;28;88253;-74
2023/01/04 11:27:34;;;;;;;4.90;1.75;;;9.90;90.50;;;;;;4993561;28;88651;-74
2023/01/04 11:30:11;;;;;;;6.50;5.18;;;9.90;90.10;;;;;;4998499;28;89477;-74
2023/01/04 11:32:55;;;;;;;1.58;0.30;;;9.90;89.20;;;;;;4998401;28;87672;-74
2023/01/04 11:35:51;;;;;;;6.60;4.85;;;9.90;87.80;;;;;;4993093;28;87336;-73
2023/01/04 11:38:18;;;;;;;;;;;9.90;88.50;;;;;;4991232;28;87802;-74
2023/01/04 11:41:15;;;;;;;10.88;8.75;;;10.00;88.00;;;;;;4997329;28;86340;-74
2023/01/04 11:44:05;;;;;;;3.72;2.50;;;10.00;89.30;;;;;;4982236;28;87710;-74
2023/01/04 11:46:33;;;;;;;6.57;5.13;;;10.00;88.60;;;;;;4996818;28;87678;-73
2023/01/04 11:48:59;;;;;;;5.95;4.82;;;10.10;87.80;;;;;;4995463;28;88278;-74
2023/01/04 11:51:27;;;;;;;1.38;0.30;;;10.10;87.90;;;;;;4990656;28;87227;-74
2023/01/04 11:54:18;;;;;;;1.67;0.40;;;10.20;86.30;;;;;;4991077;28;89054;-74
2023/01/04 11:57:02;;;;;;;2.58;0.20;;;10.20;84.90;;;;;;4989101;28;88235;-74
2023/01/04 11:59:28;;;;;;;6.05;4.63;;;10.40;85.40;;;;;;4994923;28;87127;-73
2023/01/04 12:02:19;;;;;;;18.70;15.98;;;10.50;85.10;;;;;;4995067;28;87329;-74
2023/01/04 12:04:45;;;;;;;5.22;1.10;;;10.60;85.10;;;;;;4995621;28;88019;-74
2023/01/04 12:07:22;;;;;;;5.53;2.28;;;10.70;86.20;;;;;;4996255;28;87304;-74
2023/01/04 12:09:48;;;;;;;8.90;4.95;;;10.80;87.10;;;;;;4986942;28;88535;-74
2023/01/04 12:12:14;;;;;;;30.88;22.50;;;10.80;87.70;;;;;;4991633;28;88881;-74
2023/01/04 12:14:46;;;;;;;14.13;8.15;;;10.90;88.40;;;;;;4989791;28;90154;-74
2023/01/04 12:17:18;;;;;;;10.07;3.83;;;11.00;88.90;;;;;;4989116;28;88393;-73
2023/01/04 12:19:45;;;;;;;4.60;1.42;;;10.90;87.70;;;;;;4993829;28;87758;-74
2023/01/04 12:22:35;;;;;;;7.63;4.22;;;10.90;86.70;;;;;;4994822;28;87694;-74
2023/01/04 12:25:04;;;;;;;5.45;1.90;;;10.90;90.50;;;;;;4980503;28;87253;-74
2023/01/04 12:27:29;;;;;;;4.68;1.52;;;10.80;90.00;;;;;;4990082;28;87631;-73
2023/01/04 12:30:00;;;;;;;5.88;3.03;;;10.80;90.20;;;;;;4983645;28;89475;-74
2023/01/04 12:32:26;;;;;;;3.28;1.67;;;10.80;89.70;;;;;;4995289;28;87150;-74
2023/01/04 12:34:52;;;;;;;6.70;3.00;;;10.80;90.10;;;;;;4993026;28;87601;-73
2023/01/04 12:37:48;;;;;;;7.10;2.65;;;10.70;91.10;;;;;;4980597;28;88982;-73
2023/01/04 12:40:48;;;;;;;7.78;2.97;;;10.70;91.70;;;;;;4979830;28;88550;-74
2023/01/04 12:43:14;;;;;;;6.70;3.33;;;10.60;92.10;;;;;;4991118;28;87255;-74
2023/01/04 12:45:43;;;;;;;6.05;2.90;;;10.60;92.40;;;;;;4994165;28;87708;-73
2023/01/04 12:51:26;;;;;;;5.75;2.83;;;10.50;92.50;;;;;;4970083;28;87657;-73
2023/01/04 12:53:57;;;;;;;8.50;4.40;;;10.40;92.60;;;;;;4986326;28;89125;-73
2023/01/04 12:56:43;;;;;;;7.55;3.15;;;10.40;92.80;;;;;;4984641;28;88516;-73
2023/01/04 12:59:11;;;;;;;5.82;2.50;;;10.40;93.00;;;;;;4999590;28;87799;-73
2023/01/04 13:01:36;;;;;;;7.80;3.80;;;10.40;92.80;;;;;;4997581;28;87416;-74
2023/01/04 13:04:37;;;;;;;8.02;3.38;;;10.40;92.80;;;;;;4999037;28;87100;-73
2023/01/04 13:07:44;;;;;;;7.07;3.15;;;10.40;93.00;;;;;;4999010;28;89427;-74
2023/01/04 13:10:41;;;;;;;7.30;3.47;;;10.40;93.00;;;;;;5002181;28;88823;-73
2023/01/04 13:13:18;;;;;;;6.38;3.17;;;10.50;93.30;;;;;;5001302;28;87108;-74
2023/01/04 13:15:59;;;;;;;4.85;2.63;;;10.50;93.10;;;;;;5003036;28;87309;-73
2023/01/04 13:18:47;;;;;;;6.45;2.58;;;10.60;93.30;;;;;;5002758;28;87860;-74
2023/01/04 13:21:25;;;;;;;6.25;2.55;;;10.60;93.00;;;;;;4993979;28;89628;-73
2023/01/04 13:23:53;;;;;;;6.38;2.95;;;10.70;92.80;;;;;;4991396;28;87182;-73
2023/01/04 13:26:34;;;;;;;5.78;2.50;;;10.80;92.00;;;;;;4999426;28;87158;-74
2023/01/04 13:29:25;;;;;;;5.00;2.20;;;10.80;91.40;;;;;;4999946;28;87691;-73
2023/01/04 13:32:03;;;;;;;4.85;2.17;;;10.70;91.50;;;;;;4993061;28;88262;-73
2023/01/04 13:34:29;;;;;;;4.35;1.52;;;10.50;91.20;;;;;;4992523;28;88310;-73
2023/01/04 13:37:02;;;;;;;4.85;1.92;;;10.40;91.40;;;;;;4996060;28;87384;-74
2023/01/04 13:39:28;;;;;;;7.13;3.53;;;10.50;91.50;;;;;;4996608;28;89399;-73
2023/01/04 13:41:55;;;;;;;6.97;3.20;;;10.50;92.20;;;;;;4993088;28;87217;-73
2023/01/04 13:44:30;;;;;;;8.20;3.38;;;10.50;92.40;;;;;;4996209;28;87475;-73
2023/01/04 13:46:56;;;;;;;7.30;3.30;;;10.50;92.70;;;;;;4994133;28;87092;-72
2023/01/04 13:49:22;;;;;;;7.10;3.42;;;10.40;92.80;;;;;;4992985;28;88340;-73
2023/01/04 13:51:48;;;;;;;9.50;3.47;;;10.30;93.30;;;;;;4994451;28;88530;-73
2023/01/04 13:54:20;;;;;;;11.95;6.10;;;10.40;93.50;;;;;;4994775;28;87619;-74
2023/01/04 13:56:46;;;;;;;10.40;4.55;;;10.40;92.90;;;;;;4994514;28;87108;-74
2023/01/04 13:59:12;;;;;;;5.55;1.58;;;10.40;92.60;;;;;;4997176;28;89908;-73